Time;durP1;ratioP1;P1;durP2;ratioP2;P2;SDS_P1;SDS_P2;PMS_P1;PMS_P2;Temp;Humidity;BMP_temperature;BMP_pressure;BME280_temperature;BME280_humidity;BME280_pressure;Samples;Min_cycle;Max_cycle;Signal;HPM_P1;HPM_P2
2023/12/26 00:02:00;;;;;;;0.57;0.50;;;17.30;47.30;;;;;;5154559;27;45424;-64
2023/12/26 00:04:27;;;;;;;1.10;0.40;;;17.30;47.40;;;;;;5154604;27;45358;-65
2023/12/26 00:06:54;;;;;;;0.47;0.47;;;17.20;47.30;;;;;;5154547;27;45233;-64
2023/12/26 00:09:21;;;;;;;0.40;0.40;;;17.20;47.40;;;;;;5154924;27;45465;-63
2023/12/26 00:11:48;;;;;;;0.57;0.57;;;17.20;47.40;;;;;;5154456;27;46506;-64
2023/12/26 00:14:16;;;;;;;0.65;0.65;;;17.20;48.00;;;;;;5154423;27;45393;-65
2023/12/26 00:16:43;;;;;;;0.75;0.50;;;17.20;47.40;;;;;;5154519;27;45314;-64
2023/12/26 00:19:11;;;;;;;1.35;0.68;;;17.10;47.40;;;;;;5154713;27;45312;-64
2023/12/26 00:21:38;;;;;;;0.50;0.50;;;17.10;47.50;;;;;;5153974;27;45453;-65
2023/12/26 00:24:06;;;;;;;0.73;0.65;;;17.10;47.50;;;;;;5133482;27;45359;-64
2023/12/26 00:26:33;;;;;;;0.55;0.55;;;17.10;47.60;;;;;;5133307;27;45385;-64
2023/12/26 00:28:59;;;;;;;0.55;0.55;;;17.10;47.60;;;;;;5133642;27;45403;-64
2023/12/26 00:31:26;;;;;;;2.17;0.50;;;17.10;47.70;;;;;;5133323;27;45229;-63
2023/12/26 00:33:54;;;;;;;1.27;0.70;;;17.00;47.70;;;;;;5133429;27;45181;-64
2023/12/26 00:36:22;;;;;;;1.52;0.70;;;17.00;47.70;;;;;;5133426;27;45443;-65
2023/12/26 00:38:49;;;;;;;0.60;0.60;;;17.00;47.70;;;;;;5133728;27;45457;-64
2023/12/26 00:41:17;;;;;;;0.60;0.60;;;17.00;47.70;;;;;;5153704;27;46469;-64
2023/12/26 00:43:44;;;;;;;0.38;0.30;;;17.00;47.70;;;;;;5154205;27;45173;-65
2023/12/26 00:46:11;;;;;;;0.45;0.40;;;17.00;47.80;;;;;;5153993;27;45513;-64
2023/12/26 00:48:37;;;;;;;0.40;0.40;;;16.90;47.80;;;;;;5154218;27;45423;-64
2023/12/26 00:51:06;;;;;;;1.05;0.60;;;16.90;47.80;;;;;;5171572;27;45449;-64
2023/12/26 00:53:34;;;;;;;0.47;0.47;;;16.90;47.80;;;;;;5174887;27;45923;-64
2023/12/26 00:56:01;;;;;;;0.88;0.68;;;16.90;47.90;;;;;;5175024;27;45379;-63
2023/12/26 00:58:28;;;;;;;0.70;0.45;;;16.80;47.80;;;;;;5175154;27;45433;-63
2023/12/26 01:00:55;;;;;;;0.50;0.50;;;16.80;47.90;;;;;;5174044;27;46787;-64
2023/12/26 01:03:22;;;;;;;0.70;0.70;;;16.80;47.90;;;;;;5170803;27;45346;-64
2023/12/26 01:05:49;;;;;;;1.27;0.70;;;16.80;47.90;;;;;;5171349;27;45267;-64
2023/12/26 01:08:16;;;;;;;0.73;0.70;;;16.80;47.90;;;;;;5171488;27;45532;-66
2023/12/26 01:10:45;;;;;;;1.27;0.50;;;16.80;48.00;;;;;;5171174;27;45330;-64
2023/12/26 01:13:11;;;;;;;0.68;0.55;;;16.80;48.00;;;;;;5171150;27;45308;-64
2023/12/26 01:15:39;;;;;;;0.88;0.40;;;16.80;48.00;;;;;;5171255;27;45270;-63
2023/12/26 01:18:07;;;;;;;2.17;0.70;;;16.80;48.00;;;;;;5171351;27;45450;-63
2023/12/26 01:20:34;;;;;;;0.50;0.50;;;16.70;48.00;;;;;;5170921;27;45475;-64
2023/12/26 01:23:02;;;;;;;0.50;0.50;;;16.70;48.10;;;;;;5158993;27;45398;-63
2023/12/26 01:25:29;;;;;;;0.50;0.50;;;16.70;48.10;;;;;;5150186;27;45241;-63
2023/12/26 01:27:58;;;;;;;0.55;0.55;;;16.70;48.10;;;;;;5150421;27;45523;-63
2023/12/26 01:30:24;;;;;;;0.75;0.60;;;16.70;48.10;;;;;;5149845;27;46685;-63
2023/12/26 01:32:50;;;;;;;0.40;0.40;;;16.70;48.10;;;;;;5150177;27;45300;-63
2023/12/26 01:35:17;;;;;;;0.60;0.60;;;16.70;48.20;;;;;;5150081;27;45267;-63
2023/12/26 01:37:45;;;;;;;1.08;0.70;;;16.70;48.20;;;;;;5150001;27;45439;-63
2023/12/26 01:40:12;;;;;;;0.90;0.57;;;16.60;48.20;;;;;;5149313;27;45415;-64
2023/12/26 01:42:41;;;;;;;1.50;0.55;;;16.60;48.30;;;;;;5149818;27;45232;-63
2023/12/26 01:45:10;;;;;;;1.50;0.60;;;16.60;48.30;;;;;;5147162;27;45322;-64
2023/12/26 01:47:37;;;;;;;0.68;0.60;;;16.60;48.30;;;;;;5149944;27;45293;-64
2023/12/26 01:50:04;;;;;;;0.68;0.50;;;16.60;48.30;;;;;;5158532;27;47446;-64
2023/12/26 01:52:31;;;;;;;0.60;0.60;;;16.60;48.30;;;;;;5170669;27;45296;-62
2023/12/26 01:54:58;;;;;;;0.63;0.60;;;16.60;48.30;;;;;;5171003;27;45292;-65
2023/12/26 01:57:24;;;;;;;0.52;0.50;;;16.60;48.30;;;;;;5170660;27;45408;-64
2023/12/26 01:59:51;;;;;;;0.50;0.50;;;16.60;48.30;;;;;;5170199;27;46429;-63
2023/12/26 02:02:19;;;;;;;0.60;0.60;;;16.50;48.30;;;;;;5170494;27;45308;-64
2023/12/26 02:04:46;;;;;;;0.90;0.60;;;16.50;48.30;;;;;;5170546;27;45394;-63
2023/12/26 02:07:13;;;;;;;0.52;0.52;;;16.50;48.40;;;;;;5170665;27;45244;-64
2023/12/26 02:09:41;;;;;;;0.60;0.60;;;16.50;48.40;;;;;;5170230;27;45396;-64
2023/12/26 02:12:08;;;;;;;0.55;0.50;;;16.50;48.40;;;;;;5170005;27;45353;-64
2023/12/26 02:14:35;;;;;;;1.05;0.60;;;16.50;48.40;;;;;;5170060;27;45296;-64
2023/12/26 02:17:03;;;;;;;1.25;0.60;;;16.50;48.40;;;;;;5170503;27;45317;-64
2023/12/26 02:19:31;;;;;;;0.98;0.50;;;16.40;48.40;;;;;;5170066;27;46152;-63
2023/12/26 02:21:58;;;;;;;0.60;0.60;;;16.40;48.40;;;;;;5167288;27;45489;-63
2023/12/26 02:24:26;;;;;;;1.20;0.50;;;16.40;48.50;;;;;;5149214;27;45384;-64
2023/12/26 02:26:53;;;;;;;1.30;0.82;;;16.40;48.50;;;;;;5149366;27;45311;-63
2023/12/26 02:29:20;;;;;;;0.82;0.50;;;16.40;48.50;;;;;;5148966;27;45614;-64
2023/12/26 02:31:47;;;;;;;0.60;0.60;;;16.40;48.50;;;;;;5149044;27;45454;-65
2023/12/26 02:34:13;;;;;;;0.50;0.50;;;16.40;48.50;;;;;;5149113;27;45285;-63
2023/12/26 02:36:40;;;;;;;0.85;0.50;;;16.40;48.60;;;;;;5149002;27;45416;-63
2023/12/26 02:39:10;;;;;;;0.47;0.47;;;16.30;48.50;;;;;;5148852;27;47302;-63
2023/12/26 02:41:38;;;;;;;0.73;0.70;;;16.30;48.60;;;;;;5148780;27;45315;-63
2023/12/26 02:44:05;;;;;;;1.05;0.50;;;16.30;48.60;;;;;;5148869;27;45186;-63
2023/12/26 02:46:32;;;;;;;0.98;0.65;;;16.30;48.50;;;;;;5149046;27;45308;-63
2023/12/26 02:48:59;;;;;;;0.60;0.52;;;16.30;49.20;;;;;;5148582;27;45264;-63
2023/12/26 02:51:26;;;;;;;0.63;0.47;;;16.30;48.60;;;;;;5169479;27;45494;-64
2023/12/26 02:53:53;;;;;;;0.50;0.50;;;16.30;48.70;;;;;;5169674;27;45364;-63
2023/12/26 02:56:19;;;;;;;0.50;0.50;;;16.30;48.70;;;;;;5169694;27;45351;-63
2023/12/26 02:58:48;;;;;;;0.70;0.68;;;16.20;48.60;;;;;;5169286;27;45298;-63
2023/12/26 03:01:15;;;;;;;0.50;0.50;;;16.20;48.70;;;;;;5169389;27;45415;-63
2023/12/26 03:03:41;;;;;;;0.85;0.70;;;16.20;48.60;;;;;;5169555;27;45248;-64
2023/12/26 03:06:08;;;;;;;0.65;0.40;;;16.20;48.60;;;;;;5169725;27;45389;-63
2023/12/26 03:08:35;;;;;;;0.55;0.55;;;16.20;48.70;;;;;;5169182;27;45289;-64
2023/12/26 03:11:02;;;;;;;0.93;0.60;;;16.20;48.70;;;;;;5169255;27;45365;-63
2023/12/26 03:13:29;;;;;;;0.77;0.50;;;16.20;48.70;;;;;;5169394;27;45408;-64
2023/12/26 03:15:57;;;;;;;0.52;0.52;;;16.20;48.70;;;;;;5169573;27;45454;-63
2023/12/26 03:18:24;;;;;;;0.40;0.40;;;16.20;48.70;;;;;;5169153;27;46444;-64
2023/12/26 03:20:51;;;;;;;0.82;0.50;;;16.10;48.70;;;;;;5169175;27;46323;-64
2023/12/26 03:23:17;;;;;;;1.13;0.60;;;16.10;48.70;;;;;;5154842;27;45483;-63
2023/12/26 03:25:44;;;;;;;0.50;0.40;;;16.10;48.70;;;;;;5147262;27;45299;-63
2023/12/26 03:28:11;;;;;;;0.40;0.40;;;16.10;48.80;;;;;;5148076;27;45407;-63
2023/12/26 03:30:38;;;;;;;0.57;0.57;;;16.10;48.80;;;;;;5147990;27;45348;-63
2023/12/26 03:33:06;;;;;;;1.23;0.50;;;16.10;48.80;;;;;;5148267;27;45248;-63
2023/12/26 03:35:33;;;;;;;0.68;0.68;;;16.10;48.80;;;;;;5148281;27;45316;-62
2023/12/26 03:38:00;;;;;;;1.55;0.80;;;16.10;48.80;;;;;;5147866;27;46463;-63
2023/12/26 03:40:27;;;;;;;1.55;0.80;;;16.10;48.90;;;;;;5147790;27;45424;-64
2023/12/26 03:42:55;;;;;;;0.50;0.50;;;16.10;48.80;;;;;;5148309;27;45377;-64
2023/12/26 03:45:26;;;;;;;0.60;0.55;;;16.00;48.80;;;;;;5148262;27;45306;-64
2023/12/26 03:47:53;;;;;;;1.33;0.60;;;16.00;48.80;;;;;;5148144;27;45356;-64
2023/12/26 03:50:21;;;;;;;1.75;0.80;;;16.00;48.90;;;;;;5159142;27;45406;-63
2023/12/26 03:52:48;;;;;;;0.70;0.70;;;16.00;48.90;;;;;;5168664;27;45281;-63
2023/12/26 03:55:15;;;;;;;0.40;0.40;;;16.00;48.90;;;;;;5169003;27;45402;-63
2023/12/26 03:57:42;;;;;;;0.50;0.50;;;16.00;48.90;;;;;;5168460;27;46652;-63
2023/12/26 04:00:10;;;;;;;0.50;0.50;;;16.00;48.90;;;;;;5168682;27;45269;-62
2023/12/26 04:02:37;;;;;;;0.60;0.60;;;16.00;48.90;;;;;;5168799;27;45247;-62
2023/12/26 04:05:04;;;;;;;0.40;0.40;;;16.00;48.90;;;;;;5168748;27;45243;-63
2023/12/26 04:07:33;;;;;;;0.40;0.40;;;15.90;48.90;;;;;;5168305;27;45444;-62
2023/12/26 04:09:58;;;;;;;0.93;0.50;;;16.00;49.00;;;;;;5168365;27;45387;-62
2023/12/26 04:12:25;;;;;;;0.50;0.50;;;16.00;49.00;;;;;;5168623;27;45424;-62
2023/12/26 04:14:52;;;;;;;1.10;0.60;;;16.00;48.80;;;;;;5168680;27;45300;-62
2023/12/26 04:17:19;;;;;;;0.50;0.50;;;16.10;48.70;;;;;;5168316;27;46732;-63
2023/12/26 04:19:46;;;;;;;0.60;0.60;;;16.20;48.60;;;;;;5168304;27;45499;-62
2023/12/26 04:22:13;;;;;;;0.68;0.52;;;16.20;48.40;;;;;;5163387;27;45465;-63
2023/12/26 04:24:41;;;;;;;0.60;0.57;;;16.40;48.30;;;;;;5147718;27;45270;-62
2023/12/26 04:27:08;;;;;;;0.40;0.40;;;16.50;48.10;;;;;;5147354;27;45511;-63
2023/12/26 04:29:35;;;;;;;0.85;0.60;;;16.50;47.90;;;;;;5147324;27;45297;-63
2023/12/26 04:32:02;;;;;;;0.68;0.47;;;16.60;47.70;;;;;;5147427;27;45393;-62
2023/12/26 04:34:28;;;;;;;0.45;0.40;;;16.80;47.50;;;;;;5147456;27;45515;-62
2023/12/26 04:36:55;;;;;;;1.10;0.70;;;16.90;47.20;;;;;;5149515;27;45474;-63
2023/12/26 04:39:22;;;;;;;0.82;0.52;;;16.90;47.00;;;;;;5146216;27;45329;-62
2023/12/26 04:41:51;;;;;;;0.80;0.60;;;17.00;46.80;;;;;;5129948;27;45311;-64
2023/12/26 04:44:17;;;;;;;0.50;0.50;;;17.20;46.70;;;;;;5130078;27;45494;-63
2023/12/26 04:46:44;;;;;;;0.65;0.50;;;17.20;46.50;;;;;;5129623;27;46365;-63
2023/12/26 04:49:11;;;;;;;0.73;0.60;;;17.30;46.40;;;;;;5129728;27;45340;-62
2023/12/26 04:51:38;;;;;;;0.95;0.70;;;17.40;46.30;;;;;;5130052;27;45323;-62
2023/12/26 04:54:05;;;;;;;0.90;0.50;;;17.50;46.10;;;;;;5129983;27;45319;-62
2023/12/26 04:56:31;;;;;;;0.40;0.40;;;17.50;45.90;;;;;;5129401;27;46379;-62
2023/12/26 04:59:00;;;;;;;0.80;0.57;;;17.60;45.90;;;;;;5129475;27;45358;-62
2023/12/26 05:01:26;;;;;;;0.70;0.40;;;17.60;45.80;;;;;;5129769;27;45214;-63
2023/12/26 05:03:53;;;;;;;0.50;0.50;;;17.70;45.80;;;;;;5129965;27;45323;-62
2023/12/26 05:06:20;;;;;;;0.50;0.50;;;17.70;45.60;;;;;;5129328;27;46686;-63
2023/12/26 05:08:47;;;;;;;0.50;0.50;;;17.70;45.50;;;;;;5129509;27;45339;-63
2023/12/26 05:11:21;;;;;;;1.17;0.60;;;17.80;45.50;;;;;;5129449;27;45384;-64
2023/12/26 05:13:48;;;;;;;0.40;0.40;;;17.80;45.40;;;;;;5129645;27;45520;-63
2023/12/26 05:16:16;;;;;;;3.50;0.70;;;17.90;45.40;;;;;;5129091;27;46618;-63
2023/12/26 05:18:43;;;;;;;0.80;0.40;;;17.90;45.40;;;;;;5129277;27;45263;-64
2023/12/26 05:21:17;;;;;;;0.50;0.50;;;17.90;45.30;;;;;;5129367;27;45615;-62
2023/12/26 05:23:44;;;;;;;1.20;0.70;;;17.90;45.30;;;;;;5147831;27;45309;-62
2023/12/26 05:26:11;;;;;;;0.88;0.52;;;18.00;45.30;;;;;;5149900;27;46525;-63
2023/12/26 05:28:38;;;;;;;0.50;0.50;;;18.00;45.30;;;;;;5149862;27;45332;-63
2023/12/26 05:31:05;;;;;;;1.05;0.50;;;18.00;45.20;;;;;;5150191;27;45348;-62
2023/12/26 05:33:33;;;;;;;0.40;0.40;;;18.00;45.20;;;;;;5150261;27;45263;-63
2023/12/26 05:36:01;;;;;;;0.50;0.50;;;18.00;45.10;;;;;;5149788;27;45440;-65
2023/12/26 05:38:27;;;;;;;0.88;0.47;;;18.10;45.10;;;;;;5149728;27;45335;-63
2023/12/26 05:40:54;;;;;;;0.73;0.60;;;18.10;45.00;;;;;;5167301;27;45335;-63
2023/12/26 05:43:21;;;;;;;0.57;0.47;;;18.10;45.00;;;;;;5171070;27;45414;-63
2023/12/26 05:45:48;;;;;;;1.08;0.65;;;18.10;45.00;;;;;;5167840;27;45357;-63
2023/12/26 05:48:14;;;;;;;0.70;0.60;;;18.20;45.00;;;;;;5169856;27;45244;-62
2023/12/26 05:50:43;;;;;;;1.25;0.57;;;18.20;44.90;;;;;;5170717;27;45283;-63
2023/12/26 05:53:09;;;;;;;1.60;0.65;;;18.20;44.90;;;;;;5170793;27;45400;-62
2023/12/26 05:55:36;;;;;;;0.52;0.45;;;18.20;44.90;;;;;;5170337;27;45317;-63
2023/12/26 05:58:03;;;;;;;1.70;0.50;;;18.20;44.80;;;;;;5170538;27;45304;-63
2023/12/26 06:00:30;;;;;;;1.48;0.65;;;18.20;44.90;;;;;;5170699;27;45335;-67
2023/12/26 06:02:57;;;;;;;0.57;0.43;;;18.30;44.90;;;;;;5170688;27;45428;-63
2023/12/26 06:05:24;;;;;;;0.57;0.40;;;18.30;44.80;;;;;;5170117;27;47476;-64
2023/12/26 06:07:52;;;;;;;0.40;0.40;;;18.30;44.80;;;;;;5170202;27;45310;-64
2023/12/26 06:10:19;;;;;;;0.55;0.55;;;18.30;44.80;;;;;;5170440;27;45262;-64
2023/12/26 06:12:46;;;;;;;0.75;0.40;;;18.30;44.80;;;;;;5170499;27;45370;-63
2023/12/26 06:15:12;;;;;;;0.60;0.60;;;18.30;44.80;;;;;;5170317;27;46342;-63
2023/12/26 06:17:39;;;;;;;0.65;0.60;;;18.40;44.80;;;;;;5169900;27;45408;-63
2023/12/26 06:20:07;;;;;;;1.23;0.40;;;18.40;44.70;;;;;;5170013;27;45371;-63
2023/12/26 06:22:34;;;;;;;0.50;0.38;;;18.40;44.80;;;;;;5162182;27;45326;-64
2023/12/26 06:25:03;;;;;;;1.10;0.45;;;18.40;44.60;;;;;;5148854;27;45489;-64
2023/12/26 06:27:30;;;;;;;0.52;0.50;;;18.40;44.60;;;;;;5149227;27;45300;-63
2023/12/26 06:29:56;;;;;;;0.50;0.45;;;18.40;44.60;;;;;;5149195;27;45382;-63
2023/12/26 06:32:23;;;;;;;0.40;0.40;;;18.40;44.60;;;;;;5149293;27;45293;-63
2023/12/26 06:34:50;;;;;;;0.60;0.60;;;18.40;44.60;;;;;;5148687;27;46360;-64
2023/12/26 06:37:17;;;;;;;1.13;0.40;;;18.50;44.60;;;;;;5148762;27;45384;-64
2023/12/26 06:39:44;;;;;;;1.80;0.60;;;18.40;44.60;;;;;;5148673;27;45451;-63
2023/12/26 06:42:12;;;;;;;0.43;0.43;;;18.50;44.60;;;;;;5149218;27;45535;-64
2023/12/26 06:44:40;;;;;;;0.47;0.40;;;18.50;44.60;;;;;;5148651;27;45405;-64
2023/12/26 06:47:07;;;;;;;0.47;0.43;;;18.50;44.50;;;;;;5148713;27;45475;-64
2023/12/26 06:49:34;;;;;;;0.45;0.45;;;18.50;44.60;;;;;;5153185;27;45381;-65
2023/12/26 06:52:02;;;;;;;1.17;0.50;;;18.50;44.50;;;;;;5170127;27;45308;-64
2023/12/26 06:54:32;;;;;;;1.92;0.50;;;18.60;44.50;;;;;;5169397;27;48965;-63
2023/12/26 06:57:05;;;;;;;0.60;0.60;;;18.60;44.50;;;;;;5169456;27;45421;-64
2023/12/26 06:59:33;;;;;;;0.98;0.60;;;18.60;44.40;;;;;;5168697;27;45413;-63
2023/12/26 07:02:00;;;;;;;0.52;0.40;;;18.60;44.40;;;;;;5169883;27;45291;-64
2023/12/26 07:04:27;;;;;;;0.55;0.55;;;18.60;44.40;;;;;;5169554;27;47144;-65
2023/12/26 07:06:54;;;;;;;1.02;0.70;;;18.60;44.40;;;;;;5169080;27;45244;-63
2023/12/26 07:09:21;;;;;;;0.35;0.35;;;18.60;44.30;;;;;;5169370;27;45301;-63
2023/12/26 07:11:51;;;;;;;0.60;0.57;;;18.70;44.40;;;;;;5169499;27;45446;-64
2023/12/26 07:14:17;;;;;;;0.40;0.40;;;18.70;44.40;;;;;;5169517;27;45335;-64
2023/12/26 07:16:46;;;;;;;0.55;0.52;;;18.60;44.30;;;;;;5169127;27;45317;-64
2023/12/26 07:19:13;;;;;;;0.45;0.45;;;18.60;44.30;;;;;;5169201;27;45283;-64
2023/12/26 07:21:39;;;;;;;0.40;0.40;;;18.70;44.40;;;;;;5169002;27;45361;-63
2023/12/26 07:24:07;;;;;;;0.60;0.50;;;18.70;44.40;;;;;;5147974;27;46370;-64
2023/12/26 07:26:34;;;;;;;0.98;0.80;;;18.70;44.40;;;;;;5147713;27;45261;-64
2023/12/26 07:29:00;;;;;;;1.25;0.77;;;18.70;44.40;;;;;;5148246;27;45429;-64
2023/12/26 07:31:27;;;;;;;1.55;0.63;;;18.70;45.00;;;;;;5148338;27;45433;-64
2023/12/26 07:33:57;;;;;;;0.35;0.35;;;18.70;44.40;;;;;;5148080;27;46664;-63
2023/12/26 07:36:24;;;;;;;1.15;0.60;;;18.70;44.40;;;;;;5147992;27;45316;-64
2023/12/26 07:38:51;;;;;;;0.65;0.65;;;18.70;44.40;;;;;;5148028;27;45280;-64
2023/12/26 07:41:18;;;;;;;0.47;0.47;;;18.70;44.40;;;;;;5148296;27;45357;-64
2023/12/26 07:43:46;;;;;;;0.63;0.50;;;18.70;45.00;;;;;;5147697;27;46296;-64
2023/12/26 07:46:13;;;;;;;0.40;0.40;;;18.70;44.40;;;;;;5147603;27;45334;-64
2023/12/26 07:48:40;;;;;;;0.75;0.65;;;18.70;44.40;;;;;;5147962;27;45297;-64
2023/12/26 07:51:13;;;;;;;0.50;0.50;;;18.70;44.40;;;;;;5165927;27;45422;-63
2023/12/26 07:53:39;;;;;;;0.75;0.60;;;18.70;44.40;;;;;;5168546;27;46358;-63
2023/12/26 07:56:06;;;;;;;0.95;0.70;;;18.70;44.40;;;;;;5168861;27;45300;-63
2023/12/26 07:58:34;;;;;;;0.60;0.60;;;18.70;44.40;;;;;;5168973;27;45403;-64
2023/12/26 08:01:02;;;;;;;0.57;0.57;;;18.70;44.40;;;;;;5169091;27;45417;-65
2023/12/26 08:03:29;;;;;;;1.45;0.90;;;18.70;44.30;;;;;;5168628;27;47551;-64
2023/12/26 08:05:55;;;;;;;0.50;0.50;;;18.70;44.40;;;;;;5168510;27;45316;-64
2023/12/26 08:08:24;;;;;;;0.77;0.70;;;18.70;44.40;;;;;;5168639;27;45304;-63
2023/12/26 08:10:50;;;;;;;1.58;0.70;;;18.70;44.40;;;;;;5166593;27;45470;-64
2023/12/26 08:13:17;;;;;;;0.70;0.50;;;18.70;44.40;;;;;;5172192;27;45419;-63
2023/12/26 08:15:44;;;;;;;2.28;0.65;;;18.80;44.40;;;;;;5172023;27;45271;-63
2023/12/26 08:18:11;;;;;;;0.93;0.50;;;18.70;44.30;;;;;;5172375;27;45301;-65
2023/12/26 08:20:38;;;;;;;1.67;0.63;;;18.70;44.40;;;;;;5172301;27;45445;-64
2023/12/26 08:23:05;;;;;;;0.68;0.50;;;18.70;44.40;;;;;;5159383;27;45465;-64
2023/12/26 08:25:33;;;;;;;2.22;0.88;;;18.80;44.40;;;;;;5151143;27;45308;-64
2023/12/26 08:28:00;;;;;;;0.82;0.60;;;18.80;44.40;;;;;;5150935;27;45244;-63
2023/12/26 08:30:27;;;;;;;0.98;0.68;;;18.80;44.40;;;;;;5151220;27;45259;-63
2023/12/26 08:32:54;;;;;;;0.75;0.70;;;18.80;44.40;;;;;;5150820;27;46388;-63
2023/12/26 08:35:20;;;;;;;1.65;0.52;;;18.80;44.40;;;;;;5150730;27;45448;-63
2023/12/26 08:37:47;;;;;;;0.40;0.40;;;18.80;44.40;;;;;;5150988;27;45271;-63
2023/12/26 08:40:14;;;;;;;2.33;0.70;;;18.80;44.40;;;;;;5150847;27;45481;-63
2023/12/26 08:42:42;;;;;;;1.35;0.75;;;18.80;44.40;;;;;;5150657;27;45236;-64
2023/12/26 08:45:10;;;;;;;0.55;0.55;;;18.80;44.40;;;;;;5150579;27;45381;-64
2023/12/26 08:47:36;;;;;;;0.60;0.60;;;18.80;44.30;;;;;;5150713;27;45437;-63
2023/12/26 08:50:05;;;;;;;1.02;0.65;;;18.80;44.40;;;;;;5159973;27;45368;-65
2023/12/26 08:52:32;;;;;;;1.30;0.70;;;18.80;44.40;;;;;;5171754;27;47596;-64
2023/12/26 08:54:59;;;;;;;0.65;0.60;;;18.80;44.30;;;;;;5171734;27;45390;-65
2023/12/26 08:57:26;;;;;;;0.60;0.60;;;18.80;44.30;;;;;;5171752;27;45298;-65
2023/12/26 08:59:54;;;;;;;1.00;0.55;;;18.80;44.30;;;;;;5171554;27;45421;-63
2023/12/26 09:02:21;;;;;;;1.42;0.60;;;18.80;44.30;;;;;;5171443;27;46274;-64
2023/12/26 09:04:47;;;;;;;1.60;0.88;;;18.80;44.30;;;;;;5171523;27;45291;-64
2023/12/26 09:07:13;;;;;;;1.33;0.80;;;18.80;44.30;;;;;;5171525;27;45372;-63
2023/12/26 09:09:40;;;;;;;2.08;0.70;;;18.90;44.40;;;;;;5171560;27;45474;-64
2023/12/26 09:12:08;;;;;;;1.58;0.80;;;18.90;44.40;;;;;;5171275;27;45512;-64
2023/12/26 09:14:36;;;;;;;0.98;0.70;;;18.90;44.40;;;;;;5171163;27;45272;-63
2023/12/26 09:17:04;;;;;;;0.50;0.50;;;18.90;44.30;;;;;;5171096;27;45563;-63
2023/12/26 09:19:31;;;;;;;0.60;0.60;;;18.90;44.30;;;;;;5171101;27;45490;-63
2023/12/26 09:21:58;;;;;;;0.93;0.88;;;19.00;44.30;;;;;;5167859;27;47467;-63
2023/12/26 09:24:25;;;;;;;1.38;0.70;;;19.00;44.30;;;;;;5149293;27;45246;-63
2023/12/26 09:26:52;;;;;;;0.70;0.70;;;19.00;44.20;;;;;;5150130;27;45254;-65
2023/12/26 09:29:18;;;;;;;0.82;0.60;;;19.00;44.20;;;;;;5150129;27;45452;-64
2023/12/26 09:31:45;;;;;;;0.70;0.70;;;19.00;44.20;;;;;;5149704;27;45542;-63
2023/12/26 09:34:14;;;;;;;1.02;0.90;;;19.00;44.20;;;;;;5149886;27;45367;-63
2023/12/26 09:36:41;;;;;;;0.82;0.63;;;19.00;44.20;;;;;;5149978;27;45308;-64
2023/12/26 09:39:07;;;;;;;0.80;0.70;;;19.10;44.20;;;;;;5147647;27;45457;-63
2023/12/26 09:41:34;;;;;;;0.73;0.63;;;19.10;44.20;;;;;;5128697;27;45423;-63
2023/12/26 09:44:01;;;;;;;2.08;0.60;;;19.10;44.10;;;;;;5128472;27;45370;-63
2023/12/26 09:46:28;;;;;;;0.80;0.60;;;19.10;44.20;;;;;;5128791;27;45469;-64
2023/12/26 09:48:55;;;;;;;0.47;0.40;;;19.10;44.20;;;;;;5129051;27;45242;-63
2023/12/26 09:51:23;;;;;;;1.27;0.65;;;19.10;44.20;;;;;;5128501;27;45335;-63
2023/12/26 09:53:55;;;;;;;1.00;0.60;;;19.10;44.10;;;;;;5128473;27;45455;-65
2023/12/26 09:56:22;;;;;;;1.10;0.60;;;19.10;44.10;;;;;;5128780;27;45293;-63
2023/12/26 09:58:49;;;;;;;1.38;0.73;;;19.10;44.10;;;;;;5128651;27;45377;-63
2023/12/26 10:01:16;;;;;;;1.02;0.70;;;19.10;44.10;;;;;;5128456;27;46738;-63
2023/12/26 10:03:43;;;;;;;0.90;0.60;;;19.10;44.10;;;;;;5128493;27;45374;-63
2023/12/26 10:06:10;;;;;;;0.85;0.65;;;19.10;44.10;;;;;;5128559;27;45248;-64
2023/12/26 10:08:40;;;;;;;0.95;0.63;;;19.20;44.10;;;;;;5128518;27;45411;-64
2023/12/26 10:11:08;;;;;;;1.75;0.70;;;19.20;44.10;;;;;;5128208;27;45414;-63
2023/12/26 10:13:43;;;;;;;1.20;0.80;;;19.20;44.00;;;;;;5128345;27;45257;-64
2023/12/26 10:16:09;;;;;;;1.92;0.60;;;19.20;44.00;;;;;;5128336;27;45280;-64
2023/12/26 10:18:36;;;;;;;0.50;0.50;;;19.20;44.00;;;;;;5128515;27;45264;-63
2023/12/26 10:21:03;;;;;;;1.13;0.63;;;19.20;44.10;;;;;;5127922;27;45398;-65
2023/12/26 10:23:30;;;;;;;1.27;0.57;;;19.30;44.20;;;;;;5137149;27;45465;-64
2023/12/26 10:25:59;;;;;;;2.47;0.60;;;19.20;44.00;;;;;;5149098;27;45359;-64
2023/12/26 10:28:26;;;;;;;0.85;0.85;;;19.30;44.10;;;;;;5149291;27;45120;-65
2023/12/26 10:30:53;;;;;;;0.90;0.63;;;19.30;44.70;;;;;;5149134;27;46174;-64
2023/12/26 10:33:24;;;;;;;0.70;0.60;;;19.30;44.00;;;;;;5148771;27;45382;-64
2023/12/26 10:36:01;;;;;;;1.70;0.85;;;19.30;44.00;;;;;;5149090;27;45249;-65
2023/12/26 10:38:28;;;;;;;1.38;0.70;;;19.30;44.10;;;;;;5149020;27;45395;-65
2023/12/26 10:40:58;;;;;;;0.77;0.77;;;19.30;44.10;;;;;;5165928;27;47004;-65
2023/12/26 10:43:25;;;;;;;1.85;0.68;;;19.30;44.20;;;;;;5169693;27;45295;-63
2023/12/26 10:45:52;;;;;;;0.60;0.60;;;19.20;44.10;;;;;;5169768;27;45262;-64
2023/12/26 10:48:19;;;;;;;0.47;0.40;;;19.30;44.20;;;;;;5170105;27;45422;-64
2023/12/26 10:50:46;;;;;;;0.93;0.60;;;19.30;44.20;;;;;;5169212;27;45300;-64
2023/12/26 10:53:16;;;;;;;2.40;0.57;;;19.30;44.20;;;;;;5169425;27;45330;-63
2023/12/26 10:55:44;;;;;;;0.73;0.60;;;19.30;44.20;;;;;;5169461;27;45152;-63
2023/12/26 10:58:12;;;;;;;0.93;0.60;;;19.30;44.20;;;;;;5169730;27;45287;-63
2023/12/26 11:00:39;;;;;;;0.55;0.50;;;19.30;44.20;;;;;;5169150;27;45399;-64
2023/12/26 11:03:06;;;;;;;1.50;0.93;;;19.30;44.10;;;;;;5169649;27;45335;-64
2023/12/26 11:05:31;;;;;;;1.60;0.70;;;19.30;44.10;;;;;;5169391;27;45236;-64
2023/12/26 11:07:57;;;;;;;0.70;0.70;;;19.40;44.20;;;;;;5169610;27;45265;-64
2023/12/26 11:10:24;;;;;;;0.55;0.52;;;19.40;44.20;;;;;;5169450;27;45323;-63
2023/12/26 11:12:50;;;;;;;0.65;0.60;;;19.40;44.20;;;;;;5166650;27;45475;-63
2023/12/26 11:15:17;;;;;;;2.40;0.85;;;19.40;44.10;;;;;;5169316;27;45376;-64
2023/12/26 11:17:44;;;;;;;0.52;0.52;;;19.60;43.80;;;;;;5169353;27;45342;-64
2023/12/26 11:20:10;;;;;;;0.70;0.70;;;19.70;43.60;;;;;;5168848;27;46711;-64
2023/12/26 11:22:35;;;;;;;2.28;0.75;;;19.80;43.40;;;;;;5160569;27;45200;-65
2023/12/26 11:25:02;;;;;;;0.90;0.68;;;19.90;43.20;;;;;;5148270;27;45270;-64
2023/12/26 11:27:28;;;;;;;0.77;0.52;;;20.00;43.10;;;;;;5148424;27;45399;-64
2023/12/26 11:29:54;;;;;;;2.30;0.70;;;20.00;42.90;;;;;;5147999;27;45615;-64
2023/12/26 11:32:22;;;;;;;0.88;0.70;;;20.10;42.90;;;;;;5147852;27;45456;-64
2023/12/26 11:34:48;;;;;;;0.70;0.70;;;20.10;43.40;;;;;;5147902;27;45299;-64
2023/12/26 11:37:14;;;;;;;0.55;0.50;;;20.20;42.80;;;;;;5148328;27;45251;-64
2023/12/26 11:39:41;;;;;;;0.80;0.68;;;20.20;42.70;;;;;;5140674;27;45438;-65
2023/12/26 11:42:06;;;;;;;1.63;0.52;;;20.30;43.20;;;;;;5126882;27;45134;-64
2023/12/26 11:44:32;;;;;;;1.95;0.60;;;20.40;42.50;;;;;;5127183;27;45226;-65
2023/12/26 11:46:59;;;;;;;1.10;0.65;;;20.50;42.30;;;;;;5126524;27;45518;-64
2023/12/26 11:49:26;;;;;;;1.17;0.73;;;20.60;42.20;;;;;;5126751;27;46225;-64
2023/12/26 11:51:52;;;;;;;2.03;0.70;;;20.60;42.20;;;;;;5126835;27;45387;-64
2023/12/26 11:54:19;;;;;;;1.08;0.80;;;20.50;42.40;;;;;;5127028;27;45276;-65
2023/12/26 11:56:44;;;;;;;1.15;0.82;;;20.50;42.50;;;;;;5126927;27;45390;-63
2023/12/26 11:59:10;;;;;;;1.95;0.75;;;20.50;42.50;;;;;;5126612;27;45367;-64
2023/12/26 12:01:37;;;;;;;0.90;0.90;;;20.40;42.70;;;;;;5126961;27;45336;-64
2023/12/26 12:04:03;;;;;;;0.85;0.55;;;20.30;42.90;;;;;;5126961;27;45294;-64
2023/12/26 12:06:30;;;;;;;0.80;0.65;;;20.30;43.10;;;;;;5126942;27;45260;-64
2023/12/26 12:09:06;;;;;;;0.52;0.52;;;20.20;43.20;;;;;;5126512;27;45457;-64
2023/12/26 12:11:32;;;;;;;0.70;0.57;;;20.10;43.30;;;;;;5126612;27;45378;-65
2023/12/26 12:13:58;;;;;;;2.85;0.80;;;20.10;43.50;;;;;;5126815;27;45258;-64
2023/12/26 12:16:25;;;;;;;0.95;0.60;;;20.10;43.50;;;;;;5126732;27;45405;-64
2023/12/26 12:18:59;;;;;;;0.73;0.60;;;20.00;43.50;;;;;;5126525;27;45482;-65
2023/12/26 12:21:37;;;;;;;1.48;0.47;;;20.10;43.60;;;;;;5126483;27;45415;-64
2023/12/26 12:24:03;;;;;;;2.10;0.80;;;20.00;43.60;;;;;;5126537;27;45387;-65
2023/12/26 12:26:29;;;;;;;0.93;0.70;;;20.00;43.60;;;;;;5126708;27;45315;-64
2023/12/26 12:29:03;;;;;;;0.60;0.60;;;20.10;43.70;;;;;;5126255;27;45245;-63
2023/12/26 12:31:28;;;;;;;0.60;0.52;;;20.10;43.60;;;;;;5126409;27;45219;-64
2023/12/26 12:34:13;;;;;;;1.27;0.77;;;20.10;43.50;;;;;;5126566;27;45714;-63
2023/12/26 12:36:40;;;;;;;1.15;0.80;;;20.10;43.50;;;;;;5126453;27;45468;-64
2023/12/26 12:39:06;;;;;;;1.40;0.63;;;20.20;43.50;;;;;;5128063;27;47021;-64
2023/12/26 12:41:33;;;;;;;0.60;0.60;;;20.20;43.50;;;;;;5146901;27;45428;-64
2023/12/26 12:43:59;;;;;;;0.68;0.65;;;20.20;43.50;;;;;;5147252;27;45251;-64
2023/12/26 12:46:24;;;;;;;0.50;0.50;;;20.20;43.50;;;;;;5147205;27;45260;-64
2023/12/26 12:48:51;;;;;;;1.42;0.68;;;20.20;43.50;;;;;;5147145;27;45392;-64